Time;durP1;ratioP1;P1;durP2;ratioP2;P2;SDS_P1;SDS_P2;PMS_P1;PMS_P2;Temp;Humidity;BMP_temperature;BMP_pressure;BME280_temperature;BME280_humidity;BME280_pressure;Samples;Min_cycle;Max_cycle;Signal;HPM_P1;HPM_P2
2023/06/03 00:00:08;;;;;;;1.85;0.57;;;13.70;99.90;;;;;;5003215;28;20093;-72
2023/06/03 00:02:34;;;;;;;2.47;1.08;;;13.70;99.90;;;;;;4994965;28;20097;-71
2023/06/03 00:05:01;;;;;;;1.35;0.80;;;13.60;99.90;;;;;;4991700;28;20420;-71
2023/06/03 00:07:27;;;;;;;1.98;0.60;;;13.60;99.90;;;;;;4986618;28;20141;-72
2023/06/03 00:09:53;;;;;;;1.10;0.75;;;13.60;99.90;;;;;;4986524;28;20170;-71
2023/06/03 00:12:20;;;;;;;0.70;0.70;;;13.60;99.90;;;;;;5001652;28;20037;-72
2023/06/03 00:14:45;;;;;;;0.73;0.45;;;13.50;99.90;;;;;;4982873;28;20051;-72
2023/06/03 00:17:11;;;;;;;1.15;0.80;;;13.50;99.90;;;;;;4983743;28;20515;-72
2023/06/03 00:19:40;;;;;;;1.75;0.77;;;13.50;99.90;;;;;;4985053;28;20401;-72
2023/06/03 00:22:06;;;;;;;2.40;0.88;;;13.40;99.90;;;;;;4983743;28;20511;-72
2023/06/03 00:24:32;;;;;;;3.35;1.08;;;13.40;99.90;;;;;;4984541;28;20053;-71
2023/06/03 00:26:58;;;;;;;1.90;0.68;;;13.40;99.90;;;;;;4984217;28;20069;-72
2023/06/03 00:29:24;;;;;;;0.90;0.60;;;13.40;99.90;;;;;;4985036;28;20425;-71
2023/06/03 00:31:50;;;;;;;3.67;0.98;;;13.40;99.90;;;;;;4983273;28;20050;-72
2023/06/03 00:34:16;;;;;;;1.95;1.05;;;13.30;99.90;;;;;;4984444;28;20042;-72
2023/06/03 00:36:42;;;;;;;0.80;0.80;;;13.30;99.90;;;;;;4983981;28;20050;-72
2023/06/03 00:39:08;;;;;;;0.57;0.47;;;13.30;99.90;;;;;;4984924;28;20425;-71
2023/06/03 00:41:34;;;;;;;3.80;1.23;;;13.20;99.90;;;;;;4984399;28;20053;-71
2023/06/03 00:44:00;;;;;;;0.85;0.80;;;13.30;99.90;;;;;;4984132;28;20520;-71
2023/06/03 00:46:26;;;;;;;1.70;0.70;;;13.20;99.90;;;;;;4982665;28;20117;-72
2023/06/03 00:48:52;;;;;;;1.38;0.88;;;13.20;99.90;;;;;;4983076;28;20042;-72
2023/06/03 00:51:18;;;;;;;0.43;0.43;;;13.20;99.90;;;;;;4983099;28;20438;-72
2023/06/03 00:53:45;;;;;;;2.40;0.85;;;13.20;99.90;;;;;;4982828;28;20100;-72
2023/06/03 00:56:12;;;;;;;4.47;0.75;;;13.20;99.90;;;;;;4983369;28;20042;-72
2023/06/03 00:58:37;;;;;;;1.65;0.80;;;13.10;99.90;;;;;;4984677;28;20042;-71
2023/06/03 01:01:03;;;;;;;1.33;1.17;;;13.10;99.90;;;;;;4992702;28;20040;-72
2023/06/03 01:03:29;;;;;;;1.33;1.10;;;13.00;99.90;;;;;;5003336;28;20204;-72
2023/06/03 01:06:14;;;;;;;1.17;0.75;;;13.00;99.90;;;;;;5003199;28;20443;-72
2023/06/03 01:08:58;;;;;;;1.00;0.50;;;13.00;99.90;;;;;;5001667;28;20084;-72
2023/06/03 01:11:30;;;;;;;1.73;0.70;;;12.90;99.90;;;;;;5006184;28;20043;-72
2023/06/03 01:14:11;;;;;;;1.75;0.85;;;12.90;99.90;;;;;;5007142;28;20077;-72
2023/06/03 01:16:41;;;;;;;1.10;0.65;;;12.80;99.90;;;;;;5006914;28;20042;-71
2023/06/03 01:19:17;;;;;;;3.15;1.00;;;12.80;99.90;;;;;;5005894;28;20081;-71
2023/06/03 01:21:47;;;;;;;1.33;0.70;;;12.70;99.90;;;;;;5007361;28;20364;-72
2023/06/03 01:24:20;;;;;;;2.35;0.65;;;12.70;99.90;;;;;;5007803;28;20072;-72
2023/06/03 01:26:47;;;;;;;1.05;0.75;;;12.70;99.90;;;;;;5006718;28;20045;-72
2023/06/03 01:29:13;;;;;;;2.13;0.65;;;12.60;99.90;;;;;;5007286;28;20046;-72
2023/06/03 01:31:39;;;;;;;1.05;0.70;;;12.60;99.90;;;;;;5002251;28;20535;-71
2023/06/03 01:34:05;;;;;;;0.65;0.50;;;12.50;99.90;;;;;;4989529;28;20041;-72
2023/06/03 01:36:31;;;;;;;1.00;0.80;;;12.50;99.90;;;;;;4987604;28;20068;-72
2023/06/03 01:38:57;;;;;;;3.97;1.10;;;12.50;99.90;;;;;;4986213;28;20057;-72
2023/06/03 01:41:25;;;;;;;2.58;1.08;;;12.50;99.90;;;;;;4987941;28;20039;-72
2023/06/03 01:43:51;;;;;;;0.65;0.63;;;12.40;99.90;;;;;;5000524;28;20056;-71
2023/06/03 01:46:17;;;;;;;0.60;0.60;;;12.40;99.90;;;;;;4996572;28;20286;-72
2023/06/03 01:48:43;;;;;;;0.82;0.82;;;12.40;99.90;;;;;;4987097;28;20038;-72
2023/06/03 01:51:08;;;;;;;0.82;0.40;;;12.40;99.90;;;;;;4988869;28;20388;-72
2023/06/03 01:53:34;;;;;;;0.90;0.47;;;12.30;99.90;;;;;;4987594;28;20135;-72
2023/06/03 01:56:00;;;;;;;1.63;0.90;;;12.30;99.90;;;;;;4986718;28;20034;-71
2023/06/03 01:58:26;;;;;;;1.08;0.60;;;12.30;99.90;;;;;;4985956;28;20078;-72
2023/06/03 02:00:51;;;;;;;0.98;0.50;;;12.20;99.90;;;;;;4986619;28;20065;-72
2023/06/03 02:03:17;;;;;;;0.75;0.68;;;12.30;99.90;;;;;;4988168;28;20042;-72
2023/06/03 02:05:42;;;;;;;1.50;0.50;;;12.20;99.90;;;;;;4998523;28;20072;-72
2023/06/03 02:08:08;;;;;;;0.95;0.70;;;12.30;99.90;;;;;;4987185;28;20290;-72
2023/06/03 02:10:34;;;;;;;0.73;0.40;;;12.30;99.90;;;;;;4989019;28;20409;-72
2023/06/03 02:13:00;;;;;;;0.95;0.80;;;12.30;99.90;;;;;;5005232;28;20408;-72
2023/06/03 02:15:25;;;;;;;0.90;0.90;;;12.30;99.90;;;;;;5004704;28;20046;-72
2023/06/03 02:17:51;;;;;;;0.70;0.55;;;12.30;99.90;;;;;;4987584;28;20069;-71
2023/06/03 02:20:17;;;;;;;0.93;0.60;;;12.30;99.90;;;;;;4987764;28;20125;-71
2023/06/03 02:22:43;;;;;;;0.95;0.60;;;12.30;99.90;;;;;;4994186;28;20042;-72
2023/06/03 02:25:09;;;;;;;0.63;0.55;;;12.30;99.90;;;;;;5006235;28;20088;-71
2023/06/03 02:27:35;;;;;;;1.52;0.35;;;12.30;99.90;;;;;;5006344;28;20595;-71
2023/06/03 02:30:01;;;;;;;0.50;0.50;;;12.30;99.90;;;;;;4990332;28;20050;-72
2023/06/03 02:32:26;;;;;;;0.43;0.43;;;12.30;99.90;;;;;;5004274;28;20096;-71
2023/06/03 02:34:53;;;;;;;1.75;0.70;;;12.30;99.90;;;;;;4987229;28;20612;-71
2023/06/03 02:37:19;;;;;;;1.10;0.50;;;12.30;99.90;;;;;;4997398;28;20046;-72
2023/06/03 02:39:45;;;;;;;0.57;0.57;;;12.30;99.90;;;;;;4985976;28;20078;-72
2023/06/03 02:42:11;;;;;;;2.25;1.08;;;12.20;99.90;;;;;;4985649;28;20520;-72
2023/06/03 02:44:37;;;;;;;1.42;0.47;;;12.20;99.90;;;;;;4987391;28;20077;-71
2023/06/03 02:47:03;;;;;;;1.13;0.70;;;12.30;99.90;;;;;;4987818;28;20121;-71
2023/06/03 02:49:29;;;;;;;0.60;0.52;;;12.20;99.90;;;;;;4986094;28;20498;-71
2023/06/03 02:51:54;;;;;;;1.23;0.60;;;12.20;99.90;;;;;;4986142;28;20141;-71
2023/06/03 02:54:20;;;;;;;0.77;0.50;;;12.20;99.90;;;;;;4986082;28;20084;-71
2023/06/03 02:56:46;;;;;;;1.48;0.40;;;12.10;99.90;;;;;;5001620;28;20117;-72
2023/06/03 02:59:11;;;;;;;3.20;0.77;;;12.10;99.90;;;;;;4997970;28;20042;-72
2023/06/03 03:01:38;;;;;;;1.30;0.95;;;12.00;99.90;;;;;;5005585;28;20038;-71
2023/06/03 03:04:04;;;;;;;0.47;0.45;;;12.00;99.90;;;;;;5003330;28;20081;-71
2023/06/03 03:06:29;;;;;;;0.77;0.50;;;12.00;99.90;;;;;;5004302;28;20092;-71
2023/06/03 03:08:55;;;;;;;1.33;0.50;;;12.00;99.90;;;;;;4989088;28;20058;-71
2023/06/03 03:11:21;;;;;;;0.60;0.57;;;12.00;99.90;;;;;;4985050;28;20448;-71
2023/06/03 03:13:47;;;;;;;1.38;0.80;;;12.00;99.90;;;;;;4983901;28;20038;-72
2023/06/03 03:16:13;;;;;;;0.82;0.60;;;12.00;99.90;;;;;;4999523;28;20547;-72
2023/06/03 03:18:40;;;;;;;0.30;0.30;;;12.00;99.90;;;;;;5002978;28;20046;-71
2023/06/03 03:21:05;;;;;;;2.65;0.75;;;12.00;99.90;;;;;;5035837;28;20045;-71
2023/06/03 03:23:31;;;;;;;0.65;0.40;;;12.00;99.90;;;;;;5005028;28;20532;-72
2023/06/03 03:25:58;;;;;;;1.10;0.50;;;12.00;99.90;;;;;;5004646;28;20038;-71
2023/06/03 03:28:24;;;;;;;0.77;0.70;;;12.10;99.90;;;;;;5004497;28;20037;-71
2023/06/03 03:30:50;;;;;;;0.65;0.57;;;12.10;99.90;;;;;;5004445;28;20056;-71
2023/06/03 03:33:20;;;;;;;0.82;0.47;;;12.10;99.90;;;;;;5005002;28;20550;-71
2023/06/03 03:35:48;;;;;;;1.45;0.63;;;12.10;99.90;;;;;;5004255;28;20048;-72
2023/06/03 03:38:15;;;;;;;0.65;0.57;;;12.10;99.90;;;;;;5005145;28;20057;-71
2023/06/03 03:40:40;;;;;;;0.75;0.60;;;12.10;99.90;;;;;;5004392;28;20564;-72
2023/06/03 03:43:15;;;;;;;1.13;0.52;;;12.10;99.90;;;;;;5036820;28;20129;-71
2023/06/03 03:45:41;;;;;;;0.55;0.55;;;12.10;99.90;;;;;;4998681;28;20042;-72
2023/06/03 03:48:09;;;;;;;0.40;0.38;;;12.10;99.90;;;;;;5035037;28;20061;-71
2023/06/03 03:50:40;;;;;;;1.52;0.47;;;12.20;99.90;;;;;;5036672;28;20088;-71
2023/06/03 03:53:17;;;;;;;0.70;0.35;;;12.20;99.90;;;;;;5003670;28;20104;-71
2023/06/03 03:55:45;;;;;;;1.27;0.60;;;12.20;99.90;;;;;;5036001;28;20108;-72
2023/06/03 03:58:25;;;;;;;0.50;0.40;;;12.20;99.90;;;;;;5030352;28;20096;-71
2023/06/03 04:00:51;;;;;;;1.15;0.50;;;12.10;99.90;;;;;;4983839;28;20034;-71
2023/06/03 04:03:17;;;;;;;1.70;0.60;;;12.10;99.90;;;;;;4984981;28;20133;-72
2023/06/03 04:05:49;;;;;;;1.00;0.70;;;12.20;99.90;;;;;;4984063;28;20122;-72
2023/06/03 04:08:36;;;;;;;1.63;0.70;;;12.10;99.90;;;;;;4984873;28;20055;-71
2023/06/03 04:11:03;;;;;;;1.30;0.75;;;12.10;99.90;;;;;;4984121;28;20598;-71
2023/06/03 04:13:28;;;;;;;0.45;0.40;;;12.10;99.90;;;;;;4985012;28;20506;-71
2023/06/03 04:15:54;;;;;;;0.90;0.63;;;12.10;99.90;;;;;;4983458;28;20046;-71
2023/06/03 04:18:21;;;;;;;1.42;0.50;;;12.10;99.90;;;;;;4982870;28;20460;-71
2023/06/03 04:20:49;;;;;;;1.48;0.80;;;12.00;99.90;;;;;;4984195;28;20057;-71
2023/06/03 04:23:17;;;;;;;0.82;0.57;;;12.00;99.90;;;;;;4983649;28;20061;-71
2023/06/03 04:25:43;;;;;;;1.02;0.60;;;12.00;99.90;;;;;;4983965;28;20112;-71
2023/06/03 04:28:12;;;;;;;0.90;0.80;;;12.00;99.90;;;;;;4983371;28;20085;-71
2023/06/03 04:30:38;;;;;;;0.47;0.43;;;12.00;99.90;;;;;;4983849;28;20046;-71
2023/06/03 04:33:04;;;;;;;1.65;0.98;;;11.90;99.90;;;;;;4983699;28;20057;-71
2023/06/03 04:35:29;;;;;;;1.23;0.60;;;11.90;99.90;;;;;;4983054;28;20410;-71
2023/06/03 04:37:58;;;;;;;0.40;0.40;;;11.90;99.90;;;;;;4990691;28;20081;-71
2023/06/03 04:40:23;;;;;;;1.10;0.98;;;11.90;99.90;;;;;;5003635;28;20040;-72
2023/06/03 04:42:49;;;;;;;1.15;0.65;;;11.80;99.90;;;;;;5003511;28;20485;-72
2023/06/03 04:45:15;;;;;;;2.38;0.68;;;11.90;99.90;;;;;;5000366;28;20490;-72
2023/06/03 04:47:44;;;;;;;1.00;0.43;;;11.80;99.90;;;;;;4982838;28;20042;-72
2023/06/03 04:50:10;;;;;;;1.27;0.82;;;11.90;99.90;;;;;;4984589;28;20046;-72
2023/06/03 04:52:35;;;;;;;0.98;0.63;;;11.80;99.90;;;;;;4984022;28;20062;-72
2023/06/03 04:55:02;;;;;;;2.83;0.57;;;11.80;99.90;;;;;;4984203;28;20073;-72
2023/06/03 04:57:28;;;;;;;0.60;0.60;;;11.80;99.90;;;;;;4999959;28;20125;-72
2023/06/03 04:59:54;;;;;;;0.82;0.60;;;11.80;99.90;;;;;;4982990;28;20561;-71
2023/06/03 05:02:20;;;;;;;0.70;0.50;;;11.80;99.90;;;;;;4984088;28;20047;-72
2023/06/03 05:04:46;;;;;;;4.15;1.15;;;11.90;99.90;;;;;;4983824;28;20046;-72
2023/06/03 05:07:13;;;;;;;0.95;0.55;;;11.90;99.90;;;;;;4983794;28;20085;-72
2023/06/03 05:09:39;;;;;;;2.95;0.85;;;11.90;99.90;;;;;;4996316;28;20096;-72
2023/06/03 05:12:06;;;;;;;0.75;0.40;;;11.90;99.90;;;;;;5003643;28;20050;-72
2023/06/03 05:14:32;;;;;;;2.92;0.80;;;12.00;99.90;;;;;;5003123;28;20046;-72
2023/06/03 05:16:57;;;;;;;0.43;0.43;;;12.00;99.90;;;;;;5003324;28;20447;-72
2023/06/03 05:19:23;;;;;;;1.40;1.00;;;12.00;99.90;;;;;;5035077;28;20037;-72
2023/06/03 05:21:49;;;;;;;1.05;0.93;;;12.10;99.90;;;;;;5002712;28;20030;-72
2023/06/03 05:24:15;;;;;;;1.33;1.05;;;12.10;99.90;;;;;;5003491;28;20038;-72
2023/06/03 05:26:41;;;;;;;0.70;0.70;;;12.10;99.90;;;;;;5001868;28;20121;-72
2023/06/03 05:29:07;;;;;;;0.50;0.50;;;12.20;99.90;;;;;;5002136;28;20513;-72
2023/06/03 05:31:32;;;;;;;1.25;0.98;;;12.20;99.90;;;;;;5034295;28;20053;-72
2023/06/03 05:33:58;;;;;;;0.45;0.40;;;12.20;99.90;;;;;;5003180;28;20504;-72
2023/06/03 05:36:26;;;;;;;0.75;0.63;;;12.30;99.90;;;;;;5002920;28;20404;-72
2023/06/03 05:38:52;;;;;;;2.15;0.88;;;12.30;99.90;;;;;;5001749;28;20122;-71
2023/06/03 05:41:17;;;;;;;1.15;0.60;;;12.30;99.90;;;;;;4988497;28;20121;-72
2023/06/03 05:43:43;;;;;;;2.30;0.60;;;12.40;99.90;;;;;;4982742;28;20050;-71
2023/06/03 05:46:09;;;;;;;0.77;0.60;;;12.40;99.90;;;;;;4982439;28;20047;-72
2023/06/03 05:48:34;;;;;;;2.05;0.70;;;12.40;99.90;;;;;;4997872;28;20056;-71
2023/06/03 05:51:00;;;;;;;4.28;0.73;;;12.50;99.90;;;;;;4983909;28;20038;-71
2023/06/03 05:53:26;;;;;;;0.60;0.60;;;12.50;99.90;;;;;;4983234;28;20055;-71
2023/06/03 05:55:53;;;;;;;3.42;0.60;;;12.60;99.90;;;;;;4983039;28;20492;-71
2023/06/03 05:58:19;;;;;;;0.60;0.60;;;12.60;99.90;;;;;;4992459;28;20053;-72
2023/06/03 06:00:45;;;;;;;1.13;1.00;;;12.60;99.90;;;;;;5005658;28;20184;-72
2023/06/03 06:03:12;;;;;;;1.35;0.68;;;12.70;99.90;;;;;;5006794;28;20125;-72
2023/06/03 06:05:38;;;;;;;2.92;0.70;;;12.70;99.90;;;;;;5007047;28;20046;-72
2023/06/03 06:08:04;;;;;;;4.65;0.60;;;12.70;99.90;;;;;;5005868;28;20185;-72
2023/06/03 06:10:29;;;;;;;0.88;0.40;;;12.80;99.90;;;;;;5006247;28;20072;-72
2023/06/03 06:12:55;;;;;;;0.98;0.77;;;12.80;99.90;;;;;;5037868;28;20034;-72
2023/06/03 06:15:21;;;;;;;1.80;0.50;;;12.90;99.90;;;;;;5005742;28;20069;-72
2023/06/03 06:17:47;;;;;;;1.55;0.40;;;12.90;99.90;;;;;;5004357;28;20053;-72
2023/06/03 06:20:13;;;;;;;0.85;0.50;;;13.00;99.90;;;;;;5037989;28;20065;-72
2023/06/03 06:22:38;;;;;;;0.57;0.47;;;13.00;99.90;;;;;;5006712;28;20223;-72
2023/06/03 06:25:06;;;;;;;0.90;0.65;;;13.10;99.90;;;;;;5005870;28;20050;-72
2023/06/03 06:27:31;;;;;;;0.43;0.40;;;13.20;99.90;;;;;;5005588;28;20076;-71
2023/06/03 06:29:58;;;;;;;5.57;0.77;;;13.20;99.90;;;;;;5004821;28;20532;-72
2023/06/03 06:32:25;;;;;;;3.08;0.70;;;13.30;99.90;;;;;;5006582;28;20260;-72
2023/06/03 06:34:55;;;;;;;0.63;0.50;;;13.30;99.90;;;;;;5005505;28;20046;-72
2023/06/03 06:37:21;;;;;;;3.30;1.05;;;13.40;99.90;;;;;;5020894;28;20527;-71
2023/06/03 06:39:49;;;;;;;1.08;0.73;;;13.40;99.90;;;;;;5005577;28;20081;-72
2023/06/03 06:42:33;;;;;;;1.38;0.73;;;13.50;99.90;;;;;;5005984;28;20113;-72
2023/06/03 06:45:09;;;;;;;1.13;0.80;;;13.50;99.90;;;;;;5004781;28;20134;-72
2023/06/03 06:47:36;;;;;;;0.75;0.50;;;13.60;99.90;;;;;;5022368;28;20060;-71
2023/06/03 06:50:07;;;;;;;0.57;0.50;;;13.50;99.90;;;;;;4991330;28;20034;-72
2023/06/03 06:52:34;;;;;;;1.15;0.52;;;13.50;99.90;;;;;;5026210;28;20034;-73
2023/06/03 06:55:00;;;;;;;2.00;1.13;;;13.50;99.90;;;;;;4986085;28;20784;-73
2023/06/03 06:57:28;;;;;;;1.27;0.50;;;13.50;99.90;;;;;;4985732;28;20042;-73
2023/06/03 06:59:55;;;;;;;0.80;0.50;;;13.50;99.90;;;;;;4983855;28;20276;-72
2023/06/03 07:02:21;;;;;;;0.85;0.50;;;13.50;99.90;;;;;;4984019;28;20073;-72
2023/06/03 07:04:49;;;;;;;0.93;0.40;;;13.50;99.90;;;;;;5017212;28;20035;-75
2023/06/03 07:07:15;;;;;;;0.50;0.50;;;13.50;99.90;;;;;;4985115;28;20117;-74
2023/06/03 07:09:41;;;;;;;0.55;0.50;;;13.40;99.90;;;;;;5015775;28;20517;-73
2023/06/03 07:12:10;;;;;;;1.00;0.50;;;13.40;99.90;;;;;;4990853;28;20030;-73
2023/06/03 07:14:38;;;;;;;0.63;0.43;;;13.40;99.90;;;;;;4985614;28;20061;-72
2023/06/03 07:17:04;;;;;;;0.68;0.38;;;13.40;99.90;;;;;;4995038;28;20104;-72
2023/06/03 07:19:35;;;;;;;0.52;0.50;;;13.40;99.90;;;;;;4994791;28;20050;-72
2023/06/03 07:22:01;;;;;;;1.03;0.50;;;13.40;99.90;;;;;;4984957;28;20053;-72
2023/06/03 07:24:27;;;;;;;1.02;0.95;;;13.40;99.90;;;;;;4994060;28;20077;-73
2023/06/03 07:26:53;;;;;;;3.20;0.50;;;13.40;99.90;;;;;;4988413;28;20160;-73
2023/06/03 07:29:19;;;;;;;3.05;0.40;;;13.40;99.90;;;;;;4983772;28;20034;-72
2023/06/03 07:31:46;;;;;;;6.90;1.02;;;13.50;99.90;;;;;;4988547;28;20101;-73
2023/06/03 07:34:19;;;;;;;2.40;0.50;;;13.50;99.90;;;;;;5001795;28;20493;-72
2023/06/03 07:36:50;;;;;;;2.63;0.43;;;13.60;99.90;;;;;;4988751;28;20038;-71
2023/06/03 07:39:19;;;;;;;0.73;0.40;;;13.70;99.90;;;;;;4988015;28;20042;-72
2023/06/03 07:41:52;;;;;;;2.20;0.50;;;13.80;99.90;;;;;;4984969;28;20096;-73
2023/06/03 07:44:47;;;;;;;0.30;0.30;;;13.90;99.90;;;;;;4986702;28;20400;-73
2023/06/03 07:47:14;;;;;;;0.65;0.60;;;14.00;99.90;;;;;;5015301;28;20053;-73
2023/06/03 07:49:43;;;;;;;0.30;0.30;;;14.10;99.90;;;;;;4986534;28;20039;-72
2023/06/03 07:52:15;;;;;;;0.70;0.30;;;14.10;99.90;;;;;;4983727;28;20053;-71
2023/06/03 07:54:40;;;;;;;;;;;14.20;99.90;;;;;;4987683;28;20414;-71
2023/06/03 07:57:06;;;;;;;0.40;0.40;;;14.30;99.90;;;;;;4981760;28;19928;-71
2023/06/03 07:59:33;;;;;;;1.27;0.85;;;14.30;99.90;;;;;;4981080;28;20050;-71
2023/06/03 08:01:59;;;;;;;0.82;0.40;;;14.40;99.90;;;;;;4983711;28;20105;-71
2023/06/03 08:04:32;;;;;;;1.55;1.00;;;14.40;99.90;;;;;;4981856;28;20040;-72
2023/06/03 08:07:00;;;;;;;1.30;0.80;;;14.50;99.90;;;;;;4983820;28;20077;-72
2023/06/03 08:09:28;;;;;;;1.55;0.35;;;14.60;99.90;;;;;;4983402;28;20601;-72
2023/06/03 08:11:55;;;;;;;1.23;0.55;;;14.60;99.90;;;;;;4984191;28;20500;-71
2023/06/03 08:14:22;;;;;;;1.15;0.50;;;14.70;99.90;;;;;;4983728;28;20042;-71
2023/06/03 08:16:47;;;;;;;0.40;0.30;;;14.70;99.90;;;;;;4983367;28;20081;-71
2023/06/03 08:19:16;;;;;;;1.75;0.68;;;14.80;99.90;;;;;;4982782;28;20139;-72
2023/06/03 08:21:42;;;;;;;0.93;0.50;;;14.80;99.90;;;;;;4982768;28;20712;-72
2023/06/03 08:24:09;;;;;;;0.70;0.55;;;14.90;99.90;;;;;;4999737;28;20505;-71
2023/06/03 08:26:36;;;;;;;0.68;0.47;;;14.90;99.90;;;;;;4984337;28;20540;-72
2023/06/03 08:29:04;;;;;;;0.75;0.50;;;14.90;99.90;;;;;;4963950;28;20057;-71
2023/06/03 08:31:33;;;;;;;0.73;0.50;;;15.00;99.90;;;;;;4985570;28;20037;-72
2023/06/03 08:34:00;;;;;;;0.60;0.40;;;15.00;99.90;;;;;;5015554;28;20485;-72
2023/06/03 08:36:26;;;;;;;2.30;0.50;;;15.10;99.90;;;;;;4982832;28;20120;-71
2023/06/03 08:38:52;;;;;;;1.75;0.47;;;15.10;99.90;;;;;;4982681;28;20109;-72
2023/06/03 08:41:18;;;;;;;1.20;0.50;;;15.20;99.90;;;;;;4983839;28;20034;-72
2023/06/03 08:43:52;;;;;;;1.38;1.00;;;15.20;99.90;;;;;;4983306;28;20077;-73
2023/06/03 08:46:23;;;;;;;0.57;0.40;;;15.20;99.90;;;;;;4982925;28;20054;-72
2023/06/03 08:48:57;;;;;;;0.70;0.40;;;15.20;99.90;;;;;;4984061;28;20097;-72
2023/06/03 08:51:23;;;;;;;0.60;0.32;;;15.30;99.90;;;;;;4981802;28;20053;-71
2023/06/03 08:53:52;;;;;;;1.52;0.50;;;15.40;99.90;;;;;;4982545;28;20038;-70
2023/06/03 08:56:22;;;;;;;0.32;0.30;;;15.40;99.90;;;;;;4999755;28;20062;-72
2023/06/03 08:59:03;;;;;;;1.17;0.35;;;15.50;99.90;;;;;;4983363;28;20038;-71
2023/06/03 09:01:37;;;;;;;0.77;0.40;;;15.50;99.90;;;;;;4983758;28;20385;-71
2023/06/03 09:04:03;;;;;;;1.02;0.50;;;15.60;99.90;;;;;;4969410;28;20126;-71
2023/06/03 09:06:30;;;;;;;2.40;0.47;;;15.50;99.90;;;;;;4988631;28;20057;-71
2023/06/03 09:08:57;;;;;;;0.38;0.38;;;15.60;99.90;;;;;;4983587;28;20051;-71
2023/06/03 09:11:24;;;;;;;2.28;0.47;;;15.60;99.90;;;;;;4983248;28;20046;-71
2023/06/03 09:13:51;;;;;;;0.65;0.52;;;15.70;99.90;;;;;;4983438;28;20042;-72
2023/06/03 09:16:18;;;;;;;1.02;0.50;;;15.70;99.90;;;;;;4983158;28;20108;-71
2023/06/03 09:18:44;;;;;;;0.70;0.50;;;15.80;99.90;;;;;;4983502;28;20112;-72
2023/06/03 09:21:10;;;;;;;0.60;0.40;;;15.80;99.90;;;;;;4982699;28;20516;-72
2023/06/03 09:23:38;;;;;;;0.30;0.30;;;15.90;99.90;;;;;;4984026;28;20088;-72
2023/06/03 09:26:04;;;;;;;0.20;0.20;;;15.90;99.90;;;;;;4982954;28;20547;-72
2023/06/03 09:28:30;;;;;;;0.45;0.30;;;16.00;99.90;;;;;;4984625;28;20180;-70
2023/06/03 09:30:55;;;;;;;0.70;0.50;;;16.00;99.90;;;;;;4987735;28;20876;-69
2023/06/03 09:33:22;;;;;;;1.77;0.60;;;16.10;99.90;;;;;;4986006;28;20062;-70
2023/06/03 09:36:11;;;;;;;1.60;0.50;;;16.10;99.90;;;;;;4987029;28;20049;-70
2023/06/03 09:38:54;;;;;;;0.30;0.30;;;16.10;99.90;;;;;;5018955;28;20061;-72
2023/06/03 09:41:28;;;;;;;0.45;0.25;;;16.10;99.90;;;;;;5018439;28;20680;-71
2023/06/03 09:43:55;;;;;;;0.68;0.40;;;16.20;99.90;;;;;;5017002;28;20129;-70
2023/06/03 09:46:22;;;;;;;2.20;0.63;;;16.30;99.90;;;;;;4986366;28;20077;-70
2023/06/03 09:48:48;;;;;;;0.50;0.50;;;16.30;99.90;;;;;;4995849;28;20096;-70
2023/06/03 09:51:13;;;;;;;0.55;0.40;;;16.30;99.90;;;;;;4979436;28;20506;-72
2023/06/03 09:53:39;;;;;;;0.35;0.25;;;16.40;99.90;;;;;;4987502;28;20397;-71
2023/06/03 09:56:21;;;;;;;2.55;0.50;;;16.40;99.90;;;;;;4985718;28;20129;-71
2023/06/03 09:58:47;;;;;;;0.30;0.30;;;16.40;99.90;;;;;;5017176;28;20050;-71
2023/06/03 10:01:13;;;;;;;0.32;0.30;;;16.50;99.90;;;;;;4986766;28;20035;-72
2023/06/03 10:03:56;;;;;;;0.65;0.40;;;16.50;99.90;;;;;;4990190;28;20658;-72
2023/06/03 10:06:21;;;;;;;0.68;0.60;;;16.50;99.90;;;;;;4993045;28;20054;-75
2023/06/03 10:08:47;;;;;;;0.20;0.20;;;16.60;99.90;;;;;;4986042;28;20058;-71
2023/06/03 10:11:12;;;;;;;0.85;0.43;;;16.60;99.90;;;;;;4986298;28;20125;-71
2023/06/03 10:13:40;;;;;;;2.17;0.45;;;16.50;99.90;;;;;;5018222;28;20682;-73
2023/06/03 10:16:12;;;;;;;0.70;0.47;;;16.60;99.90;;;;;;4992781;28;20054;-70
2023/06/03 10:18:41;;;;;;;0.32;0.32;;;16.60;99.90;;;;;;4989217;28;20125;-71
2023/06/03 10:21:13;;;;;;;0.60;0.22;;;16.70;99.90;;;;;;5024933;28;20042;-71
2023/06/03 10:23:41;;;;;;;0.40;0.40;;;16.70;99.90;;;;;;4993742;28;20575;-72
2023/06/03 10:26:07;;;;;;;0.35;0.35;;;16.80;99.90;;;;;;4992342;28;20286;-71
2023/06/03 10:28:33;;;;;;;0.55;0.30;;;16.80;99.90;;;;;;4994471;28;20114;-71
2023/06/03 10:31:03;;;;;;;0.55;0.40;;;16.90;99.90;;;;;;4989464;28;20072;-71
2023/06/03 10:33:31;;;;;;;0.45;0.30;;;16.90;99.90;;;;;;5016887;28;20050;-71
2023/06/03 10:35:58;;;;;;;0.68;0.63;;;16.90;99.90;;;;;;4991220;28;20133;-71
2023/06/03 10:38:25;;;;;;;2.65;0.50;;;16.90;99.90;;;;;;4985740;28;20505;-71
2023/06/03 10:40:51;;;;;;;1.92;0.32;;;16.90;99.90;;;;;;4993157;28;20046;-71
2023/06/03 10:43:18;;;;;;;2.60;0.40;;;17.00;99.90;;;;;;5022687;28;20553;-71
2023/06/03 10:45:44;;;;;;;0.45;0.40;;;17.00;99.90;;;;;;5008476;28;20042;-72
2023/06/03 10:48:13;;;;;;;0.47;0.40;;;17.00;99.90;;;;;;4984849;28;20046;-73
2023/06/03 10:50:51;;;;;;;0.63;0.52;;;17.00;99.90;;;;;;4988329;28;20046;-72
2023/06/03 10:53:41;;;;;;;0.95;0.60;;;17.10;99.90;;;;;;4985096;28;20133;-72
2023/06/03 10:56:32;;;;;;;1.52;0.40;;;17.10;99.90;;;;;;5016794;28;20056;-72
2023/06/03 10:59:02;;;;;;;1.90;0.60;;;17.10;99.90;;;;;;4983732;28;20074;-72
2023/06/03 11:02:02;;;;;;;1.10;0.52;;;17.10;99.90;;;;;;4983710;28;20043;-72
2023/06/03 11:04:36;;;;;;;0.90;0.50;;;17.10;99.90;;;;;;4984519;28;20085;-72
2023/06/03 11:07:03;;;;;;;0.75;0.43;;;17.10;99.90;;;;;;5002700;28;20042;-72
2023/06/03 11:09:39;;;;;;;0.40;0.40;;;17.20;99.90;;;;;;4989147;28;20050;-72
2023/06/03 11:12:09;;;;;;;1.48;0.52;;;17.20;99.90;;;;;;4989439;28;20052;-72
2023/06/03 11:14:40;;;;;;;2.20;0.55;;;17.30;99.90;;;;;;4995084;28;20112;-72
2023/06/03 11:17:06;;;;;;;3.20;0.60;;;17.30;99.90;;;;;;4999194;28;20105;-72
2023/06/03 11:19:49;;;;;;;0.55;0.43;;;17.30;99.90;;;;;;4994860;28;20346;-72
2023/06/03 11:22:27;;;;;;;1.55;0.45;;;17.40;99.90;;;;;;4986248;28;20097;-73
2023/06/03 11:24:53;;;;;;;0.65;0.40;;;17.40;99.90;;;;;;4997709;28;20052;-70
2023/06/03 11:27:21;;;;;;;0.30;0.30;;;17.50;99.90;;;;;;4995384;28;20393;-70
2023/06/03 11:29:47;;;;;;;0.40;0.40;;;17.50;99.90;;;;;;4984789;28;20038;-73
2023/06/03 11:32:18;;;;;;;0.30;0.30;;;17.60;99.90;;;;;;4985500;28;20038;-73
2023/06/03 11:34:45;;;;;;;0.47;0.40;;;17.60;99.90;;;;;;5016922;28;20038;-72
2023/06/03 11:37:17;;;;;;;1.02;0.75;;;17.60;99.90;;;;;;4984385;28;20523;-72
2023/06/03 11:40:08;;;;;;;1.08;0.65;;;17.60;99.90;;;;;;4988297;28;20100;-72
2023/06/03 11:43:03;;;;;;;1.00;0.50;;;17.60;99.90;;;;;;5023064;28;20046;-72
2023/06/03 11:45:29;;;;;;;1.83;0.40;;;17.60;99.90;;;;;;4993542;28;20050;-72
2023/06/03 11:48:07;;;;;;;0.65;0.50;;;17.60;99.90;;;;;;4983754;28;20054;-72
2023/06/03 11:50:44;;;;;;;0.30;0.30;;;17.70;99.90;;;;;;4982702;28;20497;-72
2023/06/03 11:53:27;;;;;;;2.10;0.50;;;17.70;99.90;;;;;;4980797;28;20046;-69
2023/06/03 11:56:03;;;;;;;0.38;0.30;;;17.70;99.40;;;;;;4985250;28;20038;-69
2023/06/03 11:58:28;;;;;;;0.20;0.20;;;17.80;99.90;;;;;;4990722;28;20108;-69
2023/06/03 12:01:08;;;;;;;0.70;0.30;;;17.80;99.90;;;;;;4987623;28;20046;-69
2023/06/03 12:03:36;;;;;;;0.47;0.40;;;17.80;98.20;;;;;;4981593;28;20113;-69
2023/06/03 12:06:03;;;;;;;0.43;0.40;;;17.80;99.90;;;;;;4981601;28;20109;-69
2023/06/03 12:08:48;;;;;;;1.70;0.43;;;17.80;99.90;;;;;;4982728;28;20244;-69
2023/06/03 12:11:31;;;;;;;0.22;0.22;;;17.80;99.90;;;;;;4982127;28;20054;-69
2023/06/03 12:13:57;;;;;;;0.40;0.40;;;17.80;99.90;;;;;;5013536;28;20081;-69
2023/06/03 12:16:33;;;;;;;0.47;0.40;;;17.90;99.90;;;;;;4982616;28;20038;-68
2023/06/03 12:19:01;;;;;;;0.55;0.40;;;18.00;99.90;;;;;;4982134;28;20191;-69
2023/06/03 12:21:27;;;;;;;1.20;0.60;;;17.90;99.90;;;;;;4981448;28;20050;-69
2023/06/03 12:23:52;;;;;;;0.85;0.40;;;18.00;99.90;;;;;;4982818;28;20389;-69
2023/06/03 12:26:19;;;;;;;0.30;0.30;;;18.10;99.90;;;;;;4982637;28;20044;-69
2023/06/03 12:28:46;;;;;;;0.30;0.30;;;18.10;99.90;;;;;;4981435;28;20030;-69
2023/06/03 12:31:15;;;;;;;0.85;0.85;;;18.20;99.90;;;;;;4980861;28;20054;-68
2023/06/03 12:33:42;;;;;;;0.50;0.40;;;18.20;99.90;;;;;;4974655;28;20041;-69
2023/06/03 12:36:09;;;;;;;0.30;0.30;;;18.20;99.90;;;;;;5021486;28;20065;-69
2023/06/03 12:38:58;;;;;;;0.50;0.35;;;18.20;99.90;;;;;;4983581;28;20551;-69
2023/06/03 12:41:24;;;;;;;0.63;0.63;;;18.20;99.60;;;;;;4982723;28;20362;-70
2023/06/03 12:43:59;;;;;;;0.88;0.70;;;18.30;99.90;;;;;;4981573;28;20248;-69
2023/06/03 12:46:24;;;;;;;1.10;0.40;;;18.30;98.60;;;;;;4983442;28;20199;-68
2023/06/03 12:48:52;;;;;;;0.77;0.45;;;18.40;99.90;;;;;;4983442;28;20188;-69
2023/06/03 12:51:36;;;;;;;1.27;0.57;;;18.40;99.90;;;;;;4982916;28;20493;-70
2023/06/03 12:54:04;;;;;;;0.95;0.40;;;18.40;97.20;;;;;;4983705;28;20053;-71